createdAt,value
2023-07-11T00:00:57.510Z,5.32
2023-07-11T00:03:24.689Z,5.60
2023-07-11T00:05:59.317Z,5.25
2023-07-11T00:08:26.185Z,5.05
2023-07-11T00:10:54.416Z,5.47
2023-07-11T00:13:21.335Z,5.75
2023-07-11T00:15:56.472Z,5.68
2023-07-11T00:18:23.506Z,5.60
2023-07-11T00:20:50.384Z,5.55
2023-07-11T00:23:17.272Z,5.28
2023-07-11T00:25:44.265Z,5.22
2023-07-11T00:28:12.870Z,5.40
2023-07-11T00:30:39.848Z,5.25
2023-07-11T00:33:06.891Z,5.10
2023-07-11T00:35:33.781Z,5.28
2023-07-11T00:38:00.770Z,5.38
2023-07-11T00:40:27.697Z,5.38
2023-07-11T00:42:55.180Z,5.10
2023-07-11T00:46:05.969Z,5.38
2023-07-11T00:48:35.326Z,5.32
2023-07-11T00:51:02.879Z,5.20
2023-07-11T00:53:31.146Z,5.75
2023-07-11T00:56:04.129Z,6.20
2023-07-11T00:58:33.874Z,5.38
2023-07-11T01:01:03.351Z,5.30
2023-07-11T01:03:30.558Z,5.00
2023-07-11T01:05:58.265Z,5.20
2023-07-11T01:08:25.739Z,5.40
2023-07-11T01:10:52.762Z,5.57
2023-07-11T01:13:19.713Z,5.20
2023-07-11T01:15:47.435Z,5.22
2023-07-11T01:18:15.848Z,5.43
2023-07-11T01:20:42.992Z,5.20
2023-07-11T01:23:11.774Z,5.07
2023-07-11T01:25:38.936Z,5.47
2023-07-11T01:28:06.506Z,5.05
2023-07-11T01:30:33.756Z,5.28
2023-07-11T01:33:01.457Z,5.15
2023-07-11T01:35:28.589Z,5.00
2023-07-11T01:37:56.374Z,5.00
2023-07-11T01:40:24.931Z,5.18
2023-07-11T01:42:53.455Z,5.60
2023-07-11T01:45:21.477Z,5.45
2023-07-11T01:47:49.695Z,5.10
2023-07-11T01:50:16.695Z,5.30
2023-07-11T01:52:43.501Z,5.57
2023-07-11T01:55:10.856Z,5.90
2023-07-11T01:57:39.044Z,5.65
2023-07-11T02:00:07.318Z,5.60
2023-07-11T02:02:34.248Z,5.72
2023-07-11T02:05:01.056Z,5.00
2023-07-11T02:07:27.859Z,5.60
2023-07-11T02:09:54.680Z,5.32
2023-07-11T02:12:21.489Z,5.43
2023-07-11T02:14:49.809Z,5.60
2023-07-11T02:17:16.980Z,5.22
2023-07-11T02:19:44.426Z,5.40
2023-07-11T02:22:11.350Z,5.53
2023-07-11T02:24:39.963Z,5.70
2023-07-11T02:27:06.955Z,5.50
2023-07-11T02:29:33.986Z,4.80
2023-07-11T02:32:02.233Z,5.55
2023-07-11T02:34:29.177Z,5.80
2023-07-11T02:36:56.009Z,5.47
2023-07-11T02:39:22.776Z,5.13
2023-07-11T02:41:49.615Z,5.63
2023-07-11T02:44:16.486Z,5.63
2023-07-11T02:46:43.422Z,5.68
2023-07-11T02:49:11.716Z,5.80
2023-07-11T02:51:38.516Z,5.50
2023-07-11T02:54:05.446Z,5.38
2023-07-11T02:56:32.317Z,5.47
2023-07-11T02:58:59.236Z,5.82
2023-07-11T03:01:26.068Z,5.65
2023-07-11T03:03:53.069Z,5.65
2023-07-11T03:06:21.590Z,5.88
2023-07-11T03:08:48.436Z,5.72
2023-07-11T03:11:15.256Z,5.25
2023-07-11T03:13:42.539Z,6.00
2023-07-11T03:16:09.930Z,5.55
2023-07-11T03:18:36.916Z,5.60
2023-07-11T03:21:04.166Z,5.38
2023-07-11T03:23:32.391Z,5.80
2023-07-11T03:25:59.285Z,5.38
2023-07-11T03:28:26.190Z,5.78
2023-07-11T03:30:53.102Z,5.75
2023-07-11T03:33:19.969Z,5.82
2023-07-11T03:35:49.496Z,5.80
2023-07-11T03:38:17.099Z,5.65
2023-07-11T03:40:45.350Z,5.90
2023-07-11T03:43:12.203Z,6.13
2023-07-11T03:45:41.472Z,6.18
2023-07-11T03:48:08.456Z,5.78
2023-07-11T03:50:35.225Z,6.03
2023-07-11T03:53:01.999Z,5.97
2023-07-11T03:55:28.826Z,6.00
2023-07-11T03:57:57.013Z,5.60
2023-07-11T04:00:23.831Z,5.53
2023-07-11T04:02:50.847Z,5.85
2023-07-11T04:05:18.045Z,5.75
2023-07-11T04:07:44.990Z,5.80
2023-07-11T04:10:11.825Z,5.72
2023-07-11T04:12:38.803Z,5.70
2023-07-11T04:15:08.255Z,5.50
2023-07-11T04:17:35.229Z,5.80
2023-07-11T04:20:02.224Z,5.70
2023-07-11T04:22:30.567Z,5.50
2023-07-11T04:24:57.480Z,5.78
2023-07-11T04:27:25.200Z,5.18
2023-07-11T04:29:52.169Z,5.57
2023-07-11T04:32:20.569Z,5.50
2023-07-11T04:34:47.471Z,6.32
2023-07-11T04:37:14.517Z,6.10
2023-07-11T04:39:41.640Z,5.50
2023-07-11T04:42:08.816Z,5.95
2023-07-11T04:44:35.612Z,5.30
2023-07-11T04:47:02.689Z,5.55
2023-07-11T04:49:30.887Z,5.78
2023-07-11T04:51:57.671Z,5.57
2023-07-11T04:54:26.934Z,5.80
2023-07-11T04:56:58.222Z,5.53
2023-07-11T04:59:25.809Z,6.53
2023-07-11T05:01:53.014Z,5.60
2023-07-11T05:04:20.036Z,5.57
2023-07-11T05:06:50.481Z,5.88
2023-07-11T05:09:18.023Z,5.47
2023-07-11T05:11:45.491Z,5.45
2023-07-11T05:14:12.470Z,5.72
2023-07-11T05:16:39.886Z,5.95
2023-07-11T05:19:06.725Z,5.90
2023-07-11T05:21:33.669Z,6.40
2023-07-11T05:24:02.365Z,5.95
2023-07-11T05:26:30.004Z,5.55
2023-07-11T05:28:56.969Z,6.55
2023-07-11T05:31:23.910Z,5.63
2023-07-11T05:33:53.458Z,5.50
2023-07-11T05:36:34.130Z,6.22
2023-07-11T05:39:05.987Z,5.63
2023-07-11T05:41:33.864Z,5.80
2023-07-11T05:44:00.765Z,5.90
2023-07-11T05:46:28.120Z,5.82
2023-07-11T05:48:56.514Z,5.68
2023-07-11T05:51:24.032Z,6.00
2023-07-11T05:53:51.727Z,5.47
2023-07-11T05:56:20.846Z,5.97
2023-07-11T05:58:48.855Z,6.03
2023-07-11T06:01:17.391Z,5.65
2023-07-11T06:03:44.678Z,5.85
2023-07-11T06:06:11.936Z,6.05
2023-07-11T06:08:39.213Z,6.53
2023-07-11T06:11:07.289Z,5.95
2023-07-11T06:13:37.377Z,6.65
2023-07-11T06:16:06.975Z,6.18
2023-07-11T06:18:35.917Z,5.60
2023-07-11T06:21:03.010Z,5.55
2023-07-11T06:23:29.877Z,5.50
2023-07-11T06:25:56.802Z,7.90
2023-07-11T06:28:23.681Z,6.10
2023-07-11T06:30:52.207Z,5.78
2023-07-11T06:33:19.081Z,5.97
2023-07-11T06:35:49.073Z,5.15
2023-07-11T06:38:15.999Z,4.28
2023-07-11T06:40:48.239Z,4.60
2023-07-11T06:43:15.159Z,4.75
2023-07-11T06:45:42.258Z,4.95
2023-07-11T06:48:10.504Z,5.10
2023-07-11T06:50:37.446Z,4.70
2023-07-11T06:53:04.298Z,4.93
2023-07-11T06:55:31.139Z,4.43
2023-07-11T06:57:57.980Z,5.40
2023-07-11T07:00:25.012Z,5.60
2023-07-11T07:02:51.922Z,7.60
2023-07-11T07:05:20.202Z,4.57
2023-07-11T07:07:47.129Z,5.55
2023-07-11T07:10:14.194Z,5.63
2023-07-11T07:12:41.347Z,5.25
2023-07-11T07:15:09.380Z,4.97
2023-07-11T07:17:36.255Z,4.68
2023-07-11T07:20:03.341Z,4.93
2023-07-11T07:22:31.487Z,4.78
2023-07-11T07:25:02.120Z,4.65
2023-07-11T07:27:33.159Z,7.63
2023-07-11T07:29:59.961Z,5.10
2023-07-11T07:32:26.856Z,4.70
2023-07-11T07:34:53.669Z,4.57
2023-07-11T07:37:20.437Z,4.72
2023-07-11T07:39:48.800Z,4.78
2023-07-11T07:42:15.678Z,5.45
2023-07-11T07:44:42.668Z,4.47
2023-07-11T07:47:09.640Z,5.10
2023-07-11T07:49:49.270Z,4.85
2023-07-11T07:52:21.415Z,5.18
2023-07-11T07:54:49.644Z,4.95
2023-07-11T07:57:16.510Z,4.53
2023-07-11T07:59:43.349Z,4.45
2023-07-11T08:02:10.628Z,4.40
2023-07-11T08:04:37.459Z,4.30
2023-07-11T08:07:04.810Z,4.70
2023-07-11T08:09:31.581Z,5.18
2023-07-11T08:12:07.354Z,5.18
2023-07-11T08:14:36.247Z,5.47
2023-07-11T08:17:03.565Z,4.88
2023-07-11T08:19:30.365Z,5.07
2023-07-11T08:21:57.249Z,4.57
2023-07-11T08:24:24.208Z,4.40
2023-07-11T08:26:51.438Z,4.93
2023-07-11T08:29:29.667Z,4.63
2023-07-11T08:31:57.260Z,5.00
2023-07-11T08:34:24.169Z,4.95
2023-07-11T08:36:51.098Z,4.63
2023-07-11T08:39:18.268Z,4.88
2023-07-11T08:41:46.772Z,5.07
2023-07-11T08:44:17.766Z,5.53
2023-07-11T08:46:52.466Z,5.00
2023-07-11T08:49:25.195Z,5.03
2023-07-11T08:51:54.627Z,4.82
2023-07-11T08:54:28.464Z,4.90
2023-07-11T08:56:57.464Z,4.97
2023-07-11T08:59:30.662Z,4.70
2023-07-11T09:04:31.456Z,4.80
2023-07-11T09:07:03.624Z,4.60
2023-07-11T09:09:30.477Z,5.82
2023-07-11T09:12:14.031Z,5.63
2023-07-11T09:14:50.823Z,4.55
2023-07-11T09:17:27.691Z,5.25
2023-07-11T09:20:12.231Z,5.25
2023-07-11T09:22:48.476Z,4.53
2023-07-11T09:25:19.558Z,5.20
2023-07-11T09:27:51.907Z,5.30
2023-07-11T09:30:23.446Z,5.35
2023-07-11T09:32:52.355Z,4.70
2023-07-11T09:35:26.084Z,5.15
2023-07-11T09:37:58.826Z,5.00
2023-07-11T09:40:33.647Z,4.90
2023-07-11T09:43:01.359Z,5.28
2023-07-11T09:45:33.149Z,5.00
2023-07-11T09:48:15.404Z,4.85
2023-07-11T09:51:06.828Z,5.03
2023-07-11T09:53:42.897Z,4.93
2023-07-11T09:56:13.577Z,5.25
2023-07-11T09:58:46.102Z,5.25
2023-07-11T10:01:19.681Z,5.07
2023-07-11T10:03:48.077Z,5.05
2023-07-11T10:06:46.403Z,4.97
2023-07-11T10:09:23.424Z,4.88
2023-07-11T10:11:55.414Z,4.97
2023-07-11T10:14:26.801Z,5.53
2023-07-11T10:16:56.157Z,5.20
2023-07-11T10:19:24.641Z,5.07
2023-07-11T10:21:52.984Z,5.88
2023-07-11T10:24:23.026Z,6.13
2023-07-11T10:26:55.889Z,5.10
2023-07-11T10:29:28.416Z,5.40
2023-07-11T10:31:58.685Z,5.00
2023-07-11T10:34:43.051Z,5.30
2023-07-11T10:37:14.394Z,5.65
2023-07-11T10:39:45.405Z,5.65
2023-07-11T10:42:25.198Z,4.93
2023-07-11T10:44:58.961Z,4.80
2023-07-11T10:47:31.916Z,5.30
2023-07-11T10:52:29.638Z,4.57
2023-07-11T10:55:02.370Z,5.43
2023-07-11T10:57:43.383Z,5.13
2023-07-11T11:00:16.199Z,5.00
2023-07-11T11:02:56.847Z,4.78
2023-07-11T11:05:32.004Z,5.00
2023-07-11T11:08:03.311Z,4.97
2023-07-11T11:10:40.246Z,4.80
2023-07-11T11:13:19.515Z,4.50
2023-07-11T11:15:52.342Z,4.63
2023-07-11T11:18:37.428Z,4.78
2023-07-11T11:21:21.192Z,4.57
2023-07-11T11:24:07.007Z,3.92
2023-07-11T11:26:39.147Z,4.00
2023-07-11T11:29:17.136Z,4.13
2023-07-11T11:34:30.968Z,3.88
2023-07-11T11:37:07.650Z,4.20
2023-07-11T11:39:43.551Z,4.55
2023-07-11T11:42:16.016Z,4.13
2023-07-11T11:50:39.732Z,4.30
2023-07-11T11:55:25.461Z,4.15
2023-07-11T11:57:53.289Z,3.65
2023-07-11T12:00:39.765Z,3.80
2023-07-11T12:03:20.766Z,4.13
2023-07-11T12:05:53.522Z,3.88
2023-07-11T12:08:31.578Z,3.92
2023-07-11T12:11:29.007Z,3.90
2023-07-11T12:14:23.907Z,4.30
2023-07-11T12:16:50.767Z,4.22
2023-07-11T12:19:33.207Z,3.90
2023-07-11T12:22:02.870Z,3.95
2023-07-11T12:24:45.470Z,3.97
2023-07-11T12:27:42.037Z,4.05
2023-07-11T12:30:40.588Z,3.78
2023-07-11T12:33:32.499Z,3.80
2023-07-11T12:36:42.999Z,3.70
2023-07-11T12:39:24.055Z,3.85
2023-07-11T12:42:03.048Z,3.63
2023-07-11T12:44:32.257Z,3.65
2023-07-11T12:46:59.054Z,4.22
2023-07-11T12:49:27.819Z,4.00
2023-07-11T12:52:04.781Z,3.80
2023-07-11T12:54:31.655Z,4.20
2023-07-11T12:56:59.838Z,3.50
2023-07-11T12:59:28.310Z,3.97
2023-07-11T13:01:57.905Z,3.58
2023-07-11T13:04:30.516Z,3.88
2023-07-11T13:06:57.676Z,3.60
2023-07-11T13:09:25.712Z,4.57
2023-07-11T13:11:53.452Z,3.70
2023-07-11T13:14:23.202Z,3.42
2023-07-11T13:16:50.693Z,3.67
2023-07-11T13:19:20.626Z,3.30
2023-07-11T13:21:50.013Z,3.72
2023-07-11T13:24:24.029Z,3.63
2023-07-11T13:26:51.337Z,3.65
2023-07-11T13:29:20.670Z,4.00
2023-07-11T13:32:04.213Z,3.83
2023-07-11T13:34:32.569Z,3.97
2023-07-11T13:36:59.682Z,3.42
2023-07-11T13:39:28.461Z,3.60
2023-07-11T13:41:56.802Z,3.30
2023-07-11T13:44:28.789Z,3.30
2023-07-11T13:46:57.234Z,3.75
2023-07-11T13:49:26.755Z,3.53
2023-07-11T13:51:59.218Z,3.42
2023-07-11T13:54:31.844Z,3.25
2023-07-11T13:56:58.857Z,3.58
2023-07-11T14:01:57.471Z,3.70
2023-07-11T14:04:27.852Z,3.50
2023-07-11T14:06:54.958Z,3.45
2023-07-11T14:09:22.177Z,3.70
2023-07-11T14:11:49.073Z,3.63
2023-07-11T14:14:29.198Z,3.83
2023-07-11T14:17:08.980Z,3.70
2023-07-11T14:19:36.753Z,3.75
2023-07-11T14:22:12.431Z,3.40
2023-07-11T14:24:42.951Z,3.45
2023-07-11T14:27:13.013Z,3.55
2023-07-11T14:29:41.684Z,3.50
2023-07-11T14:32:13.857Z,3.40
2023-07-11T14:34:40.949Z,3.40
2023-07-11T14:37:14.377Z,3.83
2023-07-11T14:39:41.138Z,3.60
2023-07-11T14:42:19.862Z,3.80
2023-07-11T14:44:46.772Z,4.00
2023-07-11T14:47:15.162Z,3.90
2023-07-11T14:49:42.072Z,4.22
2023-07-11T14:52:24.474Z,3.90
2023-07-11T14:57:14.865Z,3.90
2023-07-11T15:00:14.429Z,3.75
2023-07-11T15:02:43.053Z,4.20
2023-07-11T15:10:18.127Z,4.05
2023-07-11T15:17:50.088Z,3.80
2023-07-11T15:20:19.517Z,3.88
2023-07-11T15:22:48.731Z,3.60
2023-07-11T15:25:18.177Z,4.00
2023-07-11T15:27:45.585Z,3.53
2023-07-11T15:30:16.428Z,3.40
2023-07-11T15:35:17.026Z,3.75
2023-07-11T15:37:44.520Z,3.60
2023-07-11T15:40:17.300Z,3.47
2023-07-11T15:42:45.455Z,3.45
2023-07-11T15:45:22.048Z,3.50
2023-07-11T15:47:49.441Z,3.30
2023-07-11T15:50:19.852Z,3.30
2023-07-11T15:52:46.751Z,3.30
2023-07-11T15:55:15.599Z,3.17
2023-07-11T15:57:43.150Z,3.20
2023-07-11T16:00:15.368Z,3.70
2023-07-11T16:02:42.375Z,2.85
2023-07-11T16:05:10.459Z,3.22
2023-07-11T16:07:39.312Z,3.05
2023-07-11T16:10:22.522Z,3.30
2023-07-11T16:12:49.382Z,2.97
2023-07-11T16:15:16.335Z,2.90
2023-07-11T16:17:45.956Z,3.10
2023-07-11T16:20:18.323Z,2.90
2023-07-11T16:22:47.317Z,2.70
2023-07-11T16:25:17.638Z,2.88
2023-07-11T16:27:54.465Z,2.95
2023-07-11T16:30:24.185Z,3.15
2023-07-11T16:32:52.145Z,3.05
2023-07-11T16:35:21.351Z,2.55
2023-07-11T16:37:49.670Z,2.95
2023-07-11T16:40:19.849Z,2.70
2023-07-11T16:42:46.929Z,2.80
2023-07-11T16:45:15.053Z,2.80
2023-07-11T16:47:42.765Z,2.75
2023-07-11T16:50:16.495Z,2.85
2023-07-11T16:52:43.757Z,2.42
2023-07-11T16:55:12.728Z,2.50
2023-07-11T16:57:40.788Z,2.70
2023-07-11T17:00:16.113Z,2.80
2023-07-11T17:02:43.641Z,2.85
2023-07-11T17:05:10.766Z,2.40
2023-07-11T17:07:38.458Z,2.20
2023-07-11T17:10:06.777Z,2.50
2023-07-11T17:12:35.083Z,2.40
2023-07-11T17:15:03.359Z,2.33
2023-07-11T17:17:30.995Z,2.60
2023-07-11T17:19:58.156Z,2.47
2023-07-11T17:22:25.638Z,3.10
2023-07-11T17:24:52.840Z,2.88
2023-07-11T17:27:22.255Z,2.78
2023-07-11T17:29:52.321Z,2.38
2023-07-11T17:32:21.017Z,2.90
2023-07-11T17:34:49.011Z,2.80
2023-07-11T17:37:24.599Z,3.10
2023-07-11T17:39:51.570Z,2.88
2023-07-11T17:42:18.708Z,3.03
2023-07-11T17:44:47.989Z,3.20
2023-07-11T17:49:54.826Z,2.75
2023-07-11T17:52:24.574Z,2.97
2023-07-11T17:54:52.067Z,3.28
2023-07-11T17:57:21.438Z,3.50
2023-07-11T17:59:48.390Z,3.10
2023-07-11T18:02:22.898Z,3.08
2023-07-11T18:04:52.416Z,3.38
2023-07-11T18:07:21.259Z,3.38
2023-07-11T18:09:48.598Z,3.20
2023-07-11T18:12:21.825Z,3.53
2023-07-11T18:14:49.224Z,3.60
2023-07-11T18:17:18.166Z,3.30
2023-07-11T18:19:47.170Z,3.65
2023-07-11T18:22:16.520Z,3.63
2023-07-11T18:24:43.761Z,3.80
2023-07-11T18:27:18.465Z,3.50
2023-07-11T18:29:46.832Z,3.92
2023-07-11T18:32:21.130Z,3.90
2023-07-11T18:34:51.332Z,3.58
2023-07-11T18:37:18.937Z,3.80
2023-07-11T18:39:47.054Z,3.40
2023-07-11T18:42:15.773Z,3.58
2023-07-11T18:44:42.916Z,3.47
2023-07-11T18:47:18.773Z,3.50
2023-07-11T18:49:46.323Z,3.75
2023-07-11T18:52:20.224Z,4.25
2023-07-11T18:54:47.040Z,4.10
2023-07-11T18:57:14.729Z,3.60
2023-07-11T18:59:42.273Z,4.30
2023-07-11T19:02:15.000Z,3.88
2023-07-11T19:04:42.200Z,4.20
2023-07-11T19:07:11.024Z,4.30
2023-07-11T19:09:39.162Z,4.30
2023-07-11T19:12:30.199Z,4.30
2023-07-11T19:14:59.558Z,4.65
2023-07-11T19:17:43.010Z,5.32
2023-07-11T19:20:18.235Z,5.75
2023-07-11T19:22:46.177Z,6.57
2023-07-11T19:25:16.204Z,5.88
2023-07-11T19:27:44.899Z,5.72
2023-07-11T19:30:30.277Z,6.03
2023-07-11T19:32:58.206Z,5.30
2023-07-11T19:35:27.949Z,6.90
2023-07-11T19:37:56.754Z,7.70
2023-07-11T19:40:26.593Z,6.47
2023-07-11T19:42:54.126Z,7.18
2023-07-11T19:45:23.446Z,6.70
2023-07-11T19:47:50.710Z,5.90
2023-07-11T19:50:32.236Z,5.65
2023-07-11T19:52:59.933Z,6.32
2023-07-11T19:55:28.854Z,5.82
2023-07-11T19:57:55.926Z,6.35
2023-07-11T20:00:30.158Z,6.57
2023-07-11T20:02:57.200Z,6.28
2023-07-11T20:05:26.227Z,5.72
2023-07-11T20:07:53.434Z,5.70
2023-07-11T20:10:33.894Z,6.15
2023-07-11T20:13:02.664Z,6.10
2023-07-11T20:15:29.799Z,5.60
2023-07-11T20:17:56.742Z,6.53
2023-07-11T20:20:33.848Z,5.85
2023-07-11T20:23:01.041Z,6.32
2023-07-11T20:25:27.859Z,6.32
2023-07-11T20:28:08.031Z,6.35
2023-07-11T20:30:36.936Z,7.18
2023-07-11T20:33:03.829Z,7.05
2023-07-11T20:35:34.148Z,6.93
2023-07-11T20:38:00.972Z,6.28
2023-07-11T20:40:30.100Z,6.30
2023-07-11T20:42:58.266Z,6.47
2023-07-11T20:45:26.451Z,6.70
2023-07-11T20:47:53.314Z,6.18
2023-07-11T20:50:30.285Z,6.43
2023-07-11T20:52:57.529Z,6.32
2023-07-11T20:55:24.321Z,6.00
2023-07-11T20:57:51.942Z,5.55
2023-07-11T21:00:25.816Z,6.60
2023-07-11T21:02:54.182Z,6.85
2023-07-11T21:05:22.906Z,5.63
2023-07-11T21:07:49.896Z,6.20
2023-07-11T21:10:20.616Z,6.22
2023-07-11T21:12:47.515Z,6.05
2023-07-11T21:15:14.694Z,6.53
2023-07-11T21:17:42.918Z,6.50
2023-07-11T21:20:16.649Z,6.10
2023-07-11T21:22:43.607Z,5.80
2023-07-11T21:25:10.611Z,5.43
2023-07-11T21:27:37.582Z,6.10
2023-07-11T21:30:19.964Z,5.97
2023-07-11T21:32:48.891Z,6.03
2023-07-11T21:35:18.139Z,5.80
2023-07-11T21:37:45.092Z,5.43
2023-07-11T21:40:21.273Z,5.63
2023-07-11T21:42:49.144Z,5.10
2023-07-11T21:45:16.624Z,5.47
2023-07-11T21:47:43.773Z,2.58
2023-07-11T21:50:34.592Z,3.38
2023-07-11T21:53:01.947Z,3.00
2023-07-11T21:55:31.355Z,2.13
2023-07-11T21:57:58.400Z,1.80
2023-07-11T22:00:27.259Z,2.42
2023-07-11T22:02:54.361Z,2.22
2023-07-11T22:05:22.968Z,2.10
2023-07-11T22:07:49.741Z,1.83
2023-07-11T22:10:25.071Z,2.20
2023-07-11T22:12:52.053Z,2.30
2023-07-11T22:15:18.909Z,1.65
2023-07-11T22:17:45.956Z,1.83
2023-07-11T22:20:16.497Z,2.30
2023-07-11T22:22:44.908Z,2.00
2023-07-11T22:25:12.371Z,2.30
2023-07-11T22:27:39.296Z,1.67
2023-07-11T22:30:19.474Z,2.60
2023-07-11T22:32:46.525Z,2.45
2023-07-11T22:35:13.657Z,2.38
2023-07-11T22:37:40.438Z,2.30
2023-07-11T22:40:32.086Z,2.65
2023-07-11T22:43:00.192Z,2.33
2023-07-11T22:45:27.517Z,2.58
2023-07-11T22:47:54.399Z,2.45
2023-07-11T22:50:24.366Z,2.10
2023-07-11T22:52:51.366Z,2.25
2023-07-11T22:55:20.798Z,2.70
2023-07-11T22:57:48.350Z,2.60
2023-07-11T23:00:17.464Z,2.65
2023-07-11T23:02:44.679Z,2.53
2023-07-11T23:05:12.188Z,3.05
2023-07-11T23:07:39.606Z,2.85
2023-07-11T23:10:26.955Z,2.65
2023-07-11T23:12:53.899Z,2.83
2023-07-11T23:15:21.441Z,2.60
2023-07-11T23:17:49.201Z,2.38
2023-07-11T23:20:23.032Z,2.80
2023-07-11T23:22:51.521Z,2.72
2023-07-11T23:25:20.584Z,2.70
2023-07-11T23:27:48.763Z,2.67
2023-07-11T23:30:28.111Z,2.90
2023-07-11T23:32:59.033Z,2.63
2023-07-11T23:38:12.905Z,2.70
2023-07-11T23:40:43.973Z,2.72
2023-07-11T23:43:19.538Z,3.17
2023-07-11T23:45:49.965Z,2.38
2023-07-11T23:48:21.769Z,2.92
2023-07-11T23:50:51.796Z,2.67
2023-07-11T23:53:23.057Z,2.50
2023-07-11T23:55:53.129Z,2.42
2023-07-11T23:58:27.896Z,2.80
